sensor_id;sensor_type;location;lat;lon;timestamp;pressure;altitude;pressure_sealevel;temperature;humidity
50364;BME280;36272;59.400;17.982;2023-06-22T00:04:54;100905.31;;;21.63;70.28
50364;BME280;36272;59.400;17.982;2023-06-22T00:09:56;100909.13;;;21.62;70.23
50364;BME280;36272;59.400;17.982;2023-06-22T00:14:58;100898.50;;;21.61;70.62
50364;BME280;36272;59.400;17.982;2023-06-22T00:19:59;100896.38;;;21.58;70.56
50364;BME280;36272;59.400;17.982;2023-06-22T00:25:01;100887.91;;;21.59;70.57
50364;BME280;36272;59.400;17.982;2023-06-22T00:30:03;100876.47;;;21.62;70.42
50364;BME280;36272;59.400;17.982;2023-06-22T00:35:05;100879.19;;;21.62;70.73
50364;BME280;36272;59.400;17.982;2023-06-22T00:40:07;100868.31;;;21.62;70.56
50364;BME280;36272;59.400;17.982;2023-06-22T00:45:10;100877.00;;;21.64;70.56
50364;BME280;36272;59.400;17.982;2023-06-22T00:50:15;100867.25;;;21.58;70.76
50364;BME280;36272;59.400;17.982;2023-06-22T00:55:21;100875.41;;;21.58;70.98
50364;BME280;36272;59.400;17.982;2023-06-22T01:00:24;100873.19;;;21.60;70.96
50364;BME280;36272;59.400;17.982;2023-06-22T01:05:26;100890.63;;;21.59;71.07
50364;BME280;36272;59.400;17.982;2023-06-22T01:11:08;100871.59;;;21.59;71.21
50364;BME280;36272;59.400;17.982;2023-06-22T01:16:25;100862.91;;;21.57;71.31
50364;BME280;36272;59.400;17.982;2023-06-22T01:21:28;100860.00;;;21.73;69.78
50364;BME280;36272;59.400;17.982;2023-06-22T01:32:07;100860.25;;;21.52;71.94
50364;BME280;36272;59.400;17.982;2023-06-22T01:37:10;100865.69;;;21.52;72.42
50364;BME280;36272;59.400;17.982;2023-06-22T01:42:12;100870.34;;;21.51;73.11
50364;BME280;36272;59.400;17.982;2023-06-22T01:47:15;100851.56;;;21.50;73.30
50364;BME280;36272;59.400;17.982;2023-06-22T01:52:18;100867.88;;;21.50;73.42
50364;BME280;36272;59.400;17.982;2023-06-22T01:57:20;100868.13;;;21.53;73.74
50364;BME280;36272;59.400;17.982;2023-06-22T02:02:22;100862.38;;;21.55;73.95
50364;BME280;36272;59.400;17.982;2023-06-22T02:07:32;100853.69;;;21.53;74.35
50364;BME280;36272;59.400;17.982;2023-06-22T02:12:35;100858.28;;;21.58;74.47
50364;BME280;36272;59.400;17.982;2023-06-22T02:17:38;100866.72;;;21.56;74.55
50364;BME280;36272;59.400;17.982;2023-06-22T02:22:40;100870.53;;;21.55;75.23
50364;BME280;36272;59.400;17.982;2023-06-22T02:27:41;100881.94;;;21.57;75.35
50364;BME280;36272;59.400;17.982;2023-06-22T02:32:43;100880.84;;;21.58;75.52
50364;BME280;36272;59.400;17.982;2023-06-22T02:37:45;100892.84;;;21.57;75.66
50364;BME280;36272;59.400;17.982;2023-06-22T02:42:48;100877.03;;;21.59;75.84
50364;BME280;36272;59.400;17.982;2023-06-22T02:47:49;100873.75;;;21.62;76.42
50364;BME280;36272;59.400;17.982;2023-06-22T02:52:51;100875.38;;;21.63;76.03
50364;BME280;36272;59.400;17.982;2023-06-22T02:57:53;100882.13;;;21.66;76.30
50364;BME280;36272;59.400;17.982;2023-06-22T03:02:54;100884.25;;;21.69;76.41
50364;BME280;36272;59.400;17.982;2023-06-22T03:07:56;100886.91;;;21.74;76.64
50364;BME280;36272;59.400;17.982;2023-06-22T03:12:58;100902.38;;;21.79;76.35
50364;BME280;36272;59.400;17.982;2023-06-22T03:17:59;100891.78;;;21.77;76.51
50364;BME280;36272;59.400;17.982;2023-06-22T03:23:01;100901.50;;;21.83;76.46
50364;BME280;36272;59.400;17.982;2023-06-22T03:28:02;100895.25;;;21.83;76.26
50364;BME280;36272;59.400;17.982;2023-06-22T03:33:04;100897.22;;;21.77;76.27
50364;BME280;36272;59.400;17.982;2023-06-22T03:38:06;100891.56;;;21.74;76.51
50364;BME280;36272;59.400;17.982;2023-06-22T03:43:07;100893.25;;;21.69;76.40
50364;BME280;36272;59.400;17.982;2023-06-22T03:48:09;100894.94;;;21.65;77.02
50364;BME280;36272;59.400;17.982;2023-06-22T03:53:11;100896.03;;;21.64;76.64
50364;BME280;36272;59.400;17.982;2023-06-22T03:58:12;100887.56;;;21.66;76.76
50364;BME280;36272;59.400;17.982;2023-06-22T04:03:15;100875.16;;;21.79;76.66
50364;BME280;36272;59.400;17.982;2023-06-22T04:08:17;100892.94;;;21.90;76.10
50364;BME280;36272;59.400;17.982;2023-06-22T04:13:19;100888.97;;;22.02;75.92
50364;BME280;36272;59.400;17.982;2023-06-22T04:18:21;100897.16;;;22.02;75.60
50364;BME280;36272;59.400;17.982;2023-06-22T04:23:22;100893.03;;;22.04;75.71
50364;BME280;36272;59.400;17.982;2023-06-22T04:28:24;100894.03;;;22.08;75.25
50364;BME280;36272;59.400;17.982;2023-06-22T04:33:25;100895.88;;;22.13;75.33
50364;BME280;36272;59.400;17.982;2023-06-22T04:38:27;100894.72;;;22.19;74.80
50364;BME280;36272;59.400;17.982;2023-06-22T04:43:29;100895.16;;;22.26;74.22
50364;BME280;36272;59.400;17.982;2023-06-22T04:48:33;100902.09;;;22.33;73.66
50364;BME280;36272;59.400;17.982;2023-06-22T04:53:40;100886.50;;;22.38;73.10
50364;BME280;36272;59.400;17.982;2023-06-22T04:58:42;100902.03;;;22.38;72.30
50364;BME280;36272;59.400;17.982;2023-06-22T05:03:44;100902.63;;;22.35;72.07
50364;BME280;36272;59.400;17.982;2023-06-22T05:08:47;100908.44;;;22.47;71.78
50364;BME280;36272;59.400;17.982;2023-06-22T05:13:48;100900.88;;;22.44;71.18
50364;BME280;36272;59.400;17.982;2023-06-22T05:18:52;100897.09;;;22.40;71.43
50364;BME280;36272;59.400;17.982;2023-06-22T05:23:54;100905.78;;;22.42;70.73
50364;BME280;36272;59.400;17.982;2023-06-22T05:28:58;100900.28;;;22.47;70.24
50364;BME280;36272;59.400;17.982;2023-06-22T05:33:59;100905.13;;;22.50;69.70
50364;BME280;36272;59.400;17.982;2023-06-22T05:39:11;100883.94;;;22.47;69.04
50364;BME280;36272;59.400;17.982;2023-06-22T05:44:13;100907.34;;;22.48;68.96
50364;BME280;36272;59.400;17.982;2023-06-22T05:49:15;100901.03;;;22.67;68.53
50364;BME280;36272;59.400;17.982;2023-06-22T05:54:17;100903.78;;;22.95;67.32
50364;BME280;36272;59.400;17.982;2023-06-22T05:59:19;100904.53;;;23.14;66.70
50364;BME280;36272;59.400;17.982;2023-06-22T06:04:21;100901.59;;;23.25;66.39
50364;BME280;36272;59.400;17.982;2023-06-22T06:09:22;100907.88;;;23.25;66.34
50364;BME280;36272;59.400;17.982;2023-06-22T06:14:24;100919.78;;;23.15;67.32
50364;BME280;36272;59.400;17.982;2023-06-22T06:19:25;100916.44;;;23.05;67.28
50364;BME280;36272;59.400;17.982;2023-06-22T06:24:27;100920.16;;;22.95;67.96
50364;BME280;36272;59.400;17.982;2023-06-22T06:29:29;100919.47;;;23.03;68.34
50364;BME280;36272;59.400;17.982;2023-06-22T06:34:30;100920.66;;;22.97;68.46
50364;BME280;36272;59.400;17.982;2023-06-22T06:39:32;100914.63;;;23.00;68.48
50364;BME280;36272;59.400;17.982;2023-06-22T06:44:33;100921.59;;;23.06;68.63
50364;BME280;36272;59.400;17.982;2023-06-22T06:49:36;100930.38;;;23.03;68.59
50364;BME280;36272;59.400;17.982;2023-06-22T06:54:38;100929.34;;;22.99;67.96
50364;BME280;36272;59.400;17.982;2023-06-22T06:59:39;100937.13;;;23.06;68.01
50364;BME280;36272;59.400;17.982;2023-06-22T07:04:41;100933.53;;;23.10;67.60
50364;BME280;36272;59.400;17.982;2023-06-22T07:09:43;100936.69;;;23.31;67.38
50364;BME280;36272;59.400;17.982;2023-06-22T07:14:44;100925.88;;;23.40;66.24
50364;BME280;36272;59.400;17.982;2023-06-22T07:19:46;100933.94;;;23.45;66.14
50364;BME280;36272;59.400;17.982;2023-06-22T07:24:47;100947.69;;;23.26;66.23
50364;BME280;36272;59.400;17.982;2023-06-22T07:29:50;100935.41;;;23.10;66.18
50364;BME280;36272;59.400;17.982;2023-06-22T07:34:52;100954.69;;;22.99;66.52
50364;BME280;36272;59.400;17.982;2023-06-22T07:39:53;100954.09;;;23.02;66.60
50364;BME280;36272;59.400;17.982;2023-06-22T07:44:59;100944.72;;;23.09;66.20
50364;BME280;36272;59.400;17.982;2023-06-22T07:50:01;100925.13;;;23.07;66.39
50364;BME280;36272;59.400;17.982;2023-06-22T07:55:03;100916.22;;;23.15;66.16
50364;BME280;36272;59.400;17.982;2023-06-22T08:00:06;100918.69;;;23.44;65.75
50364;BME280;36272;59.400;17.982;2023-06-22T08:05:18;100926.06;;;23.58;65.33
50364;BME280;36272;59.400;17.982;2023-06-22T08:10:23;100925.06;;;23.54;65.20
50364;BME280;36272;59.400;17.982;2023-06-22T08:15:26;100910.28;;;23.55;64.73
50364;BME280;36272;59.400;17.982;2023-06-22T08:20:28;100912.28;;;23.63;64.65
50364;BME280;36272;59.400;17.982;2023-06-22T08:25:29;100916.97;;;23.85;64.25
50364;BME280;36272;59.400;17.982;2023-06-22T08:30:31;100921.84;;;24.02;63.24
50364;BME280;36272;59.400;17.982;2023-06-22T08:35:33;100931.50;;;24.09;62.96
50364;BME280;36272;59.400;17.982;2023-06-22T08:40:34;100923.56;;;24.21;62.95
50364;BME280;36272;59.400;17.982;2023-06-22T08:45:36;100919.75;;;24.45;62.33
50364;BME280;36272;59.400;17.982;2023-06-22T08:50:37;100914.28;;;24.45;62.26
50364;BME280;36272;59.400;17.982;2023-06-22T08:55:41;100916.34;;;24.71;62.20
50364;BME280;36272;59.400;17.982;2023-06-22T09:00:43;100920.56;;;25.08;60.63
50364;BME280;36272;59.400;17.982;2023-06-22T09:05:44;100912.75;;;25.24;60.23
50364;BME280;36272;59.400;17.982;2023-06-22T09:10:52;100909.53;;;25.31;59.66
50364;BME280;36272;59.400;17.982;2023-06-22T09:15:53;100909.22;;;25.33;59.92
50364;BME280;36272;59.400;17.982;2023-06-22T09:20:55;100900.66;;;25.17;59.76
50364;BME280;36272;59.400;17.982;2023-06-22T09:25:57;100913.97;;;25.09;58.80
50364;BME280;36272;59.400;17.982;2023-06-22T09:30:59;100902.25;;;25.18;58.67
50364;BME280;36272;59.400;17.982;2023-06-22T09:36:01;100897.81;;;25.39;58.14
50364;BME280;36272;59.400;17.982;2023-06-22T09:41:03;100885.13;;;25.44;57.35
50364;BME280;36272;59.400;17.982;2023-06-22T09:46:05;100888.84;;;25.48;56.43
50364;BME280;36272;59.400;17.982;2023-06-22T09:51:08;100897.69;;;25.62;56.87
50364;BME280;36272;59.400;17.982;2023-06-22T09:56:13;100878.41;;;25.76;56.09
50364;BME280;36272;59.400;17.982;2023-06-22T10:01:28;100880.66;;;25.74;56.36
50364;BME280;36272;59.400;17.982;2023-06-22T10:06:30;100879.03;;;25.73;56.18
50364;BME280;36272;59.400;17.982;2023-06-22T10:11:36;100877.75;;;25.79;55.74
50364;BME280;36272;59.400;17.982;2023-06-22T10:16:38;100890.63;;;25.88;55.65
50364;BME280;36272;59.400;17.982;2023-06-22T10:21:40;100887.09;;;25.96;55.01
50364;BME280;36272;59.400;17.982;2023-06-22T10:26:42;100874.19;;;26.05;55.01
50364;BME280;36272;59.400;17.982;2023-06-22T10:31:48;100867.91;;;26.22;54.25
50364;BME280;36272;59.400;17.982;2023-06-22T10:36:50;100890.94;;;26.30;53.86
50364;BME280;36272;59.400;17.982;2023-06-22T10:41:51;100877.88;;;26.36;53.67
50364;BME280;36272;59.400;17.982;2023-06-22T10:46:53;100877.72;;;26.41;53.45
50364;BME280;36272;59.400;17.982;2023-06-22T10:51:55;100879.31;;;26.51;53.02
50364;BME280;36272;59.400;17.982;2023-06-22T10:56:56;100868.09;;;26.73;52.82
50364;BME280;36272;59.400;17.982;2023-06-22T11:01:58;100882.34;;;27.06;52.62
50364;BME280;36272;59.400;17.982;2023-06-22T11:07:00;100893.31;;;27.36;51.38
50364;BME280;36272;59.400;17.982;2023-06-22T11:12:02;100881.34;;;28.04;50.89
50364;BME280;36272;59.400;17.982;2023-06-22T11:17:04;100879.34;;;31.80;45.96
50364;BME280;36272;59.400;17.982;2023-06-22T11:22:05;100880.69;;;35.22;41.00
50364;BME280;36272;59.400;17.982;2023-06-22T11:27:07;100879.91;;;36.79;38.95
50364;BME280;36272;59.400;17.982;2023-06-22T11:32:09;100872.53;;;38.24;36.83
50364;BME280;36272;59.400;17.982;2023-06-22T11:37:10;100876.66;;;39.07;35.62
50364;BME280;36272;59.400;17.982;2023-06-22T11:42:12;100867.41;;;40.31;34.76
50364;BME280;36272;59.400;17.982;2023-06-22T11:47:14;100872.50;;;41.28;33.18
50364;BME280;36272;59.400;17.982;2023-06-22T11:52:15;100860.56;;;41.24;32.52
50364;BME280;36272;59.400;17.982;2023-06-22T11:57:19;100869.09;;;41.57;32.75
50364;BME280;36272;59.400;17.982;2023-06-22T12:02:20;100869.88;;;42.27;31.52
50364;BME280;36272;59.400;17.982;2023-06-22T12:07:22;100871.22;;;40.88;32.03
50364;BME280;36272;59.400;17.982;2023-06-22T12:12:24;100868.59;;;39.75;33.52
50364;BME280;36272;59.400;17.982;2023-06-22T12:17:25;100871.28;;;40.13;33.19
50364;BME280;36272;59.400;17.982;2023-06-22T12:22:27;100874.06;;;39.55;33.40
50364;BME280;36272;59.400;17.982;2023-06-22T12:27:29;100866.59;;;39.48;33.53
50364;BME280;36272;59.400;17.982;2023-06-22T12:32:31;100867.69;;;38.81;34.16
50364;BME280;36272;59.400;17.982;2023-06-22T12:37:33;100871.25;;;39.24;33.85
50364;BME280;36272;59.400;17.982;2023-06-22T12:42:35;100860.44;;;39.26;33.69
50364;BME280;36272;59.400;17.982;2023-06-22T12:47:40;100839.81;;;39.12;33.92
50364;BME280;36272;59.400;17.982;2023-06-22T12:52:41;100854.47;;;39.24;33.93
50364;BME280;36272;59.400;17.982;2023-06-22T12:57:43;100855.00;;;39.15;33.71
50364;BME280;36272;59.400;17.982;2023-06-22T13:02:50;100837.03;;;39.12;33.90
50364;BME280;36272;59.400;17.982;2023-06-22T13:07:52;100840.59;;;38.78;33.79
50364;BME280;36272;59.400;17.982;2023-06-22T13:12:58;100825.84;;;38.78;33.95
50364;BME280;36272;59.400;17.982;2023-06-22T13:18:02;100852.06;;;38.46;34.39
50364;BME280;36272;59.400;17.982;2023-06-22T13:23:03;100856.75;;;38.07;34.95
50364;BME280;36272;59.400;17.982;2023-06-22T13:28:05;100848.19;;;38.29;35.00
50364;BME280;36272;59.400;17.982;2023-06-22T13:33:07;100847.72;;;38.41;34.70
50364;BME280;36272;59.400;17.982;2023-06-22T13:38:09;100832.50;;;38.49;34.19
50364;BME280;36272;59.400;17.982;2023-06-22T13:43:11;100847.06;;;38.68;33.40
50364;BME280;36272;59.400;17.982;2023-06-22T13:48:12;100838.94;;;38.85;33.61
50364;BME280;36272;59.400;17.982;2023-06-22T13:53:14;100841.69;;;39.26;33.75
50364;BME280;36272;59.400;17.982;2023-06-22T13:58:16;100836.41;;;39.63;33.15
50364;BME280;36272;59.400;17.982;2023-06-22T14:03:18;100834.09;;;39.89;32.28
50364;BME280;36272;59.400;17.982;2023-06-22T14:08:19;100831.00;;;39.80;33.04
50364;BME280;36272;59.400;17.982;2023-06-22T14:13:22;100826.91;;;40.12;32.38
50364;BME280;36272;59.400;17.982;2023-06-22T14:18:24;100834.44;;;40.42;32.13
50364;BME280;36272;59.400;17.982;2023-06-22T14:23:26;100824.91;;;40.12;32.14
50364;BME280;36272;59.400;17.982;2023-06-22T14:28:28;100831.81;;;40.32;31.11
50364;BME280;36272;59.400;17.982;2023-06-22T14:33:30;100834.31;;;40.26;30.93
50364;BME280;36272;59.400;17.982;2023-06-22T14:38:31;100828.16;;;40.35;31.34
50364;BME280;36272;59.400;17.982;2023-06-22T14:43:44;100818.94;;;40.10;30.63
50364;BME280;36272;59.400;17.982;2023-06-22T14:48:46;100838.09;;;39.57;31.00
50364;BME280;36272;59.400;17.982;2023-06-22T14:53:48;100841.03;;;39.46;31.27
50364;BME280;36272;59.400;17.982;2023-06-22T14:58:50;100848.84;;;39.28;31.27
50364;BME280;36272;59.400;17.982;2023-06-22T15:03:51;100840.47;;;38.93;30.94
50364;BME280;36272;59.400;17.982;2023-06-22T15:08:53;100840.34;;;38.13;31.48
50364;BME280;36272;59.400;17.982;2023-06-22T15:13:59;100822.06;;;37.30;31.89
50364;BME280;36272;59.400;17.982;2023-06-22T15:19:01;100853.66;;;36.65;33.10
50364;BME280;36272;59.400;17.982;2023-06-22T15:24:03;100838.91;;;36.17;33.60
50364;BME280;36272;59.400;17.982;2023-06-22T15:29:05;100830.03;;;35.61;34.60
50364;BME280;36272;59.400;17.982;2023-06-22T15:34:07;100834.59;;;35.17;35.22
50364;BME280;36272;59.400;17.982;2023-06-22T15:39:08;100833.19;;;34.82;35.79
50364;BME280;36272;59.400;17.982;2023-06-22T15:44:10;100844.19;;;34.19;35.76
50364;BME280;36272;59.400;17.982;2023-06-22T15:49:11;100849.28;;;33.79;36.57
50364;BME280;36272;59.400;17.982;2023-06-22T15:54:13;100839.44;;;33.20;37.54
50364;BME280;36272;59.400;17.982;2023-06-22T15:59:15;100844.81;;;32.83;38.15
50364;BME280;36272;59.400;17.982;2023-06-22T16:04:17;100848.41;;;32.60;38.03
50364;BME280;36272;59.400;17.982;2023-06-22T16:09:18;100841.00;;;32.21;38.82
50364;BME280;36272;59.400;17.982;2023-06-22T16:14:20;100845.09;;;32.08;39.28
50364;BME280;36272;59.400;17.982;2023-06-22T16:19:22;100837.72;;;31.92;39.27
50364;BME280;36272;59.400;17.982;2023-06-22T16:24:24;100830.38;;;31.80;39.49
50364;BME280;36272;59.400;17.982;2023-06-22T16:29:26;100840.50;;;31.53;39.88
50364;BME280;36272;59.400;17.982;2023-06-22T16:34:27;100828.75;;;31.20;40.19
50364;BME280;36272;59.400;17.982;2023-06-22T16:39:29;100827.72;;;30.93;40.81
50364;BME280;36272;59.400;17.982;2023-06-22T16:44:33;100845.47;;;30.76;41.34
50364;BME280;36272;59.400;17.982;2023-06-22T16:49:35;100834.94;;;30.49;41.38
50364;BME280;36272;59.400;17.982;2023-06-22T16:54:39;100812.78;;;30.30;41.88
50364;BME280;36272;59.400;17.982;2023-06-22T16:59:41;100833.06;;;30.21;42.08
50364;BME280;36272;59.400;17.982;2023-06-22T17:04:44;100827.44;;;30.02;42.75
50364;BME280;36272;59.400;17.982;2023-06-22T17:09:48;100822.66;;;29.86;43.07
50364;BME280;36272;59.400;17.982;2023-06-22T17:14:51;100811.03;;;29.64;43.11
50364;BME280;36272;59.400;17.982;2023-06-22T17:19:53;100829.66;;;29.55;43.68
50364;BME280;36272;59.400;17.982;2023-06-22T17:24:55;100832.44;;;29.43;43.91
50364;BME280;36272;59.400;17.982;2023-06-22T17:30:10;100826.25;;;29.46;43.51
50364;BME280;36272;59.400;17.982;2023-06-22T17:35:17;100830.88;;;29.17;44.01
50364;BME280;36272;59.400;17.982;2023-06-22T17:40:21;100818.06;;;28.96;44.44
50364;BME280;36272;59.400;17.982;2023-06-22T17:45:23;100819.53;;;28.69;44.89
50364;BME280;36272;59.400;17.982;2023-06-22T17:50:25;100819.75;;;28.51;45.29
50364;BME280;36272;59.400;17.982;2023-06-22T17:55:26;100826.13;;;28.30;45.79
50364;BME280;36272;59.400;17.982;2023-06-22T18:00:28;100822.63;;;28.09;46.34
50364;BME280;36272;59.400;17.982;2023-06-22T18:05:35;100813.28;;;27.88;46.78
50364;BME280;36272;59.400;17.982;2023-06-22T18:10:38;100817.53;;;27.65;47.39
50364;BME280;36272;59.400;17.982;2023-06-22T18:15:41;100839.81;;;27.42;47.67
50364;BME280;36272;59.400;17.982;2023-06-22T18:20:45;100825.59;;;27.19;48.28
50364;BME280;36272;59.400;17.982;2023-06-22T18:25:48;100859.25;;;27.07;48.38
50364;BME280;36272;59.400;17.982;2023-06-22T18:30:50;100860.63;;;26.92;48.55
50364;BME280;36272;59.400;17.982;2023-06-22T18:35:52;100846.94;;;26.83;48.82
50364;BME280;36272;59.400;17.982;2023-06-22T18:40:54;100846.63;;;26.76;48.97
50364;BME280;36272;59.400;17.982;2023-06-22T18:46:31;100842.97;;;26.63;49.11
50364;BME280;36272;59.400;17.982;2023-06-22T18:52:06;100837.56;;;26.45;49.32
50364;BME280;36272;59.400;17.982;2023-06-22T18:57:28;100846.59;;;26.28;49.64
50364;BME280;36272;59.400;17.982;2023-06-22T19:13:26;100861.63;;;25.87;50.35
50364;BME280;36272;59.400;17.982;2023-06-22T19:18:49;100866.63;;;25.76;50.67
50364;BME280;36272;59.400;17.982;2023-06-22T19:23:52;100887.09;;;25.61;51.05
50364;BME280;36272;59.400;17.982;2023-06-22T19:28:54;100883.84;;;25.50;51.35
50364;BME280;36272;59.400;17.982;2023-06-22T19:34:04;100865.44;;;25.33;51.74
50364;BME280;36272;59.400;17.982;2023-06-22T19:39:06;100883.56;;;25.20;51.83
50364;BME280;36272;59.400;17.982;2023-06-22T19:44:08;100890.78;;;25.07;52.04
50364;BME280;36272;59.400;17.982;2023-06-22T19:49:10;100896.06;;;24.94;52.20
50364;BME280;36272;59.400;17.982;2023-06-22T19:54:11;100911.44;;;24.82;52.42
50364;BME280;36272;59.400;17.982;2023-06-22T19:59:14;100893.97;;;24.69;52.84
50364;BME280;36272;59.400;17.982;2023-06-22T20:04:23;100892.13;;;24.55;53.14
50364;BME280;36272;59.400;17.982;2023-06-22T20:09:24;100920.38;;;24.42;53.32
50364;BME280;36272;59.400;17.982;2023-06-22T20:14:44;100895.50;;;24.29;53.74
50364;BME280;36272;59.400;17.982;2023-06-22T20:19:53;100891.72;;;24.16;54.05
50364;BME280;36272;59.400;17.982;2023-06-22T20:24:54;100927.97;;;24.08;54.17
50364;BME280;36272;59.400;17.982;2023-06-22T20:29:56;100922.22;;;23.96;54.51
50364;BME280;36272;59.400;17.982;2023-06-22T20:35:02;100903.31;;;23.85;54.88
50364;BME280;36272;59.400;17.982;2023-06-22T20:40:06;100919.34;;;23.78;55.00
50364;BME280;36272;59.400;17.982;2023-06-22T20:45:08;100930.16;;;23.69;55.28
50364;BME280;36272;59.400;17.982;2023-06-22T20:50:11;100935.53;;;23.60;55.77
50364;BME280;36272;59.400;17.982;2023-06-22T20:55:13;100923.22;;;23.49;56.33
50364;BME280;36272;59.400;17.982;2023-06-22T21:00:15;100933.53;;;23.38;56.43
50364;BME280;36272;59.400;17.982;2023-06-22T21:05:21;100927.50;;;23.27;56.94
50364;BME280;36272;59.400;17.982;2023-06-22T21:10:23;100947.75;;;23.21;57.26
50364;BME280;36272;59.400;17.982;2023-06-22T21:15:25;100936.25;;;23.10;57.34
50364;BME280;36272;59.400;17.982;2023-06-22T21:20:26;100931.78;;;23.00;57.85
50364;BME280;36272;59.400;17.982;2023-06-22T21:25:28;100931.66;;;22.92;57.95
50364;BME280;36272;59.400;17.982;2023-06-22T21:30:33;100933.97;;;22.84;58.18
50364;BME280;36272;59.400;17.982;2023-06-22T21:35:34;100935.75;;;22.75;58.62
50364;BME280;36272;59.400;17.982;2023-06-22T21:40:41;100918.50;;;22.66;59.16
50364;BME280;36272;59.400;17.982;2023-06-22T21:45:43;100940.66;;;22.59;59.43
50364;BME280;36272;59.400;17.982;2023-06-22T21:50:44;100942.16;;;22.51;59.52
50364;BME280;36272;59.400;17.982;2023-06-22T21:55:46;100950.41;;;22.46;59.87
50364;BME280;36272;59.400;17.982;2023-06-22T22:00:48;100954.31;;;22.40;60.20
50364;BME280;36272;59.400;17.982;2023-06-22T22:05:49;100952.25;;;22.32;60.28
50364;BME280;36272;59.400;17.982;2023-06-22T22:10:51;100949.09;;;22.24;60.57
50364;BME280;36272;59.400;17.982;2023-06-22T22:15:55;100950.56;;;22.17;60.68
50364;BME280;36272;59.400;17.982;2023-06-22T22:20:57;100940.06;;;22.10;60.87
50364;BME280;36272;59.400;17.982;2023-06-22T22:25:59;100942.63;;;22.01;61.30
50364;BME280;36272;59.400;17.982;2023-06-22T22:31:01;100942.97;;;21.94;61.48
50364;BME280;36272;59.400;17.982;2023-06-22T22:36:03;100950.41;;;21.89;61.39
50364;BME280;36272;59.400;17.982;2023-06-22T22:41:06;100948.06;;;21.82;61.58
50364;BME280;36272;59.400;17.982;2023-06-22T22:46:08;100961.22;;;21.75;62.27
50364;BME280;36272;59.400;17.982;2023-06-22T22:51:09;100954.22;;;21.68;62.24
50364;BME280;36272;59.400;17.982;2023-06-22T22:56:11;100951.88;;;21.62;62.49
50364;BME280;36272;59.400;17.982;2023-06-22T23:01:13;100946.47;;;21.57;62.54
50364;BME280;36272;59.400;17.982;2023-06-22T23:06:15;100940.31;;;21.46;62.93
50364;BME280;36272;59.400;17.982;2023-06-22T23:11:17;100941.97;;;21.42;62.92
50364;BME280;36272;59.400;17.982;2023-06-22T23:16:18;100943.44;;;21.34;63.03
50364;BME280;36272;59.400;17.982;2023-06-22T23:21:21;100935.63;;;21.27;63.26
50364;BME280;36272;59.400;17.982;2023-06-22T23:26:23;100941.13;;;21.22;63.43
50364;BME280;36272;59.400;17.982;2023-06-22T23:31:24;100932.50;;;21.15;63.65
50364;BME280;36272;59.400;17.982;2023-06-22T23:36:26;100934.47;;;21.09;64.00
50364;BME280;36272;59.400;17.982;2023-06-22T23:41:28;100933.19;;;21.01;64.18
50364;BME280;36272;59.400;17.982;2023-06-22T23:46:31;100910.16;;;20.93;64.66
50364;BME280;36272;59.400;17.982;2023-06-22T23:51:38;100913.22;;;20.87;64.55
50364;BME280;36272;59.400;17.982;2023-06-22T23:56:40;100920.84;;;20.85;64.42
